Terminal Aerodrome Forecast
Issued by NWS Louisville, KY

Home | Current Version | Previous Version | Text Only | Print | Product List | Glossary On
Versions: 1 2 3 4 5 6 7 8 9 10 11 12 13 14 15 16 17 18
238
FTUS43 KLMK 292320
TAFLEX
TAF
KLEX 292320Z 3000/3024 VRB04KT P6SM OVC150
     FM300900 09009KT P6SM VCSH BKN060
     FM301600 16012G22KT P6SM -SHRA VCTS BKN040CB=

USA.gov is the U.S. government's official web portal to all federal, state and local government web resources and services.